createdAt,value
2019-06-27T00:00:22.774Z,12.20
2019-06-27T00:03:11.918Z,9.17
2019-06-27T00:06:01.402Z,10.43
2019-06-27T00:08:50.069Z,10.03
2019-06-27T00:11:39.244Z,12.67
2019-06-27T00:14:27.739Z,12.43
2019-06-27T00:17:17.188Z,10.00
2019-06-27T00:20:07.275Z,12.13
2019-06-27T00:22:56.418Z,9.20
2019-06-27T00:25:45.609Z,13.07
2019-06-27T00:28:35.923Z,10.80
2019-06-27T00:31:24.575Z,13.13
2019-06-27T00:34:13.907Z,12.40
2019-06-27T00:37:03.315Z,12.13
2019-06-27T00:39:52.667Z,11.10
2019-06-27T00:42:41.957Z,13.70
2019-06-27T00:45:30.906Z,12.60
2019-06-27T00:48:20.111Z,12.30
2019-06-27T00:51:09.285Z,13.40
2019-06-27T00:53:58.662Z,13.50
2019-06-27T00:56:48.155Z,17.47
2019-06-27T00:59:36.995Z,15.90
2019-06-27T01:02:25.565Z,18.67
2019-06-27T01:05:14.288Z,17.23
2019-06-27T01:08:03.367Z,15.30
2019-06-27T01:10:52.089Z,13.63
2019-06-27T01:13:40.787Z,15.07
2019-06-27T01:16:29.904Z,14.20
2019-06-27T01:19:19.212Z,18.33
2019-06-27T01:22:08.021Z,13.23
2019-06-27T01:24:57.099Z,12.87
2019-06-27T01:27:45.580Z,14.37
2019-06-27T01:30:34.609Z,15.97
2019-06-27T01:33:23.673Z,11.97
2019-06-27T01:36:13.095Z,12.23
2019-06-27T01:39:01.875Z,18.47
2019-06-27T01:41:51.321Z,15.60
2019-06-27T01:44:58.864Z,15.50
2019-06-27T01:47:48.012Z,13.47
2019-06-27T01:50:37.396Z,12.60
2019-06-27T01:53:26.242Z,14.50
2019-06-27T01:56:15.390Z,13.60
2019-06-27T01:59:04.533Z,13.73
2019-06-27T02:01:54.414Z,13.00
2019-06-27T02:04:43.161Z,16.13
2019-06-27T02:07:32.884Z,14.33
2019-06-27T02:10:22.332Z,15.93
2019-06-27T02:13:10.995Z,13.90
2019-06-27T02:16:00.145Z,18.40
2019-06-27T02:18:49.483Z,12.40
2019-06-27T02:21:38.507Z,10.70
2019-06-27T02:24:27.595Z,12.40
2019-06-27T02:27:16.575Z,15.60
2019-06-27T02:30:07.121Z,14.87
2019-06-27T02:32:56.060Z,15.73
2019-06-27T02:35:45.601Z,14.50
2019-06-27T02:38:35.001Z,14.20
2019-06-27T02:41:24.324Z,15.23
2019-06-27T02:44:13.839Z,16.87
2019-06-27T02:47:03.086Z,16.70
2019-06-27T02:49:52.084Z,18.73
2019-06-27T02:52:41.720Z,19.00
2019-06-27T02:55:30.803Z,20.47
2019-06-27T02:58:30.625Z,19.57
2019-06-27T03:01:10.508Z,20.60
2019-06-27T03:03:59.787Z,21.40
2019-06-27T03:06:49.018Z,22.77
2019-06-27T03:09:38.209Z,20.33
2019-06-27T03:12:27.230Z,26.37
2019-06-27T03:15:16.525Z,25.10
2019-06-27T03:18:05.266Z,23.73
2019-06-27T03:20:54.477Z,26.30
2019-06-27T03:23:43.306Z,38.30
2019-06-27T03:26:33.091Z,27.20
2019-06-27T03:29:21.906Z,36.93
2019-06-27T03:32:13.691Z,26.73
2019-06-27T03:35:02.504Z,27.73
2019-06-27T03:37:53.823Z,30.37
2019-06-27T03:40:42.632Z,30.30
2019-06-27T03:43:31.616Z,28.20
2019-06-27T03:46:20.960Z,26.10
2019-06-27T03:49:09.817Z,26.73
2019-06-27T03:51:59.289Z,27.57
2019-06-27T03:54:47.993Z,32.63
2019-06-27T03:57:36.967Z,25.33
2019-06-27T04:00:32.016Z,30.27
2019-06-27T04:03:20.842Z,30.53
2019-06-27T04:06:09.977Z,28.70
2019-06-27T04:08:59.155Z,28.17
2019-06-27T04:11:48.564Z,29.50
2019-06-27T04:14:37.611Z,31.73
2019-06-27T04:17:27.187Z,29.80
2019-06-27T04:20:16.896Z,29.07
2019-06-27T04:23:05.735Z,32.30
2019-06-27T04:25:54.948Z,36.10
2019-06-27T04:28:44.195Z,30.90
2019-06-27T04:31:33.236Z,28.00
2019-06-27T04:34:22.526Z,27.40
2019-06-27T04:37:11.749Z,29.10
2019-06-27T04:40:00.917Z,28.17
2019-06-27T04:42:49.926Z,26.50
2019-06-27T04:45:41.398Z,27.53
2019-06-27T04:48:31.255Z,29.03
2019-06-27T04:51:20.649Z,28.37
2019-06-27T04:54:09.998Z,26.83
2019-06-27T04:56:59.299Z,31.70
2019-06-27T04:59:53.998Z,33.70
2019-06-27T05:02:38.967Z,31.13
2019-06-27T05:05:27.711Z,26.80
2019-06-27T05:08:04.290Z,24.63
2019-06-27T05:10:34.620Z,22.90
2019-06-27T05:13:04.926Z,33.67
2019-06-27T05:15:35.163Z,23.63
2019-06-27T05:18:23.869Z,29.37
2019-06-27T05:21:13.417Z,31.63
2019-06-27T05:24:02.583Z,34.23
2019-06-27T05:26:51.689Z,36.63
2019-06-27T05:29:40.782Z,32.30
2019-06-27T05:32:29.918Z,33.83
2019-06-27T05:35:19.527Z,40.77
2019-06-27T05:38:08.974Z,28.00
2019-06-27T05:40:58.026Z,29.53
2019-06-27T05:43:31.487Z,27.23
2019-06-27T05:46:01.694Z,27.60
2019-06-27T05:48:32.066Z,28.73
2019-06-27T05:51:02.313Z,34.60
2019-06-27T05:53:32.589Z,26.60
2019-06-27T05:56:02.882Z,24.57
2019-06-27T05:58:33.058Z,25.60
2019-06-27T06:01:03.125Z,23.00
2019-06-27T06:03:51.554Z,19.97
2019-06-27T06:06:40.740Z,21.03
2019-06-27T06:09:32.777Z,22.43
2019-06-27T06:12:19.849Z,27.47
2019-06-27T06:15:08.756Z,23.90
2019-06-27T06:17:57.395Z,32.70
2019-06-27T06:20:46.422Z,30.13
2019-06-27T06:23:35.362Z,22.03
2019-06-27T06:26:23.800Z,26.97
2019-06-27T06:29:14.476Z,25.27
2019-06-27T06:32:03.366Z,28.77
2019-06-27T06:34:52.878Z,29.20
2019-06-27T06:37:42.446Z,29.17
2019-06-27T06:40:31.055Z,23.33
2019-06-27T06:43:20.596Z,24.00
2019-06-27T06:46:09.608Z,26.80
2019-06-27T06:48:58.950Z,25.57
2019-06-27T06:51:47.781Z,22.00
2019-06-27T06:54:36.781Z,23.33
2019-06-27T06:57:26.206Z,21.60
2019-06-27T07:00:15.709Z,22.47
2019-06-27T07:03:04.717Z,27.43
2019-06-27T07:05:54.509Z,24.80
2019-06-27T07:08:43.940Z,25.80
2019-06-27T07:11:33.364Z,23.97
2019-06-27T07:14:27.006Z,26.20
2019-06-27T07:17:14.587Z,21.13
2019-06-27T07:20:03.444Z,17.60
2019-06-27T07:22:52.724Z,17.27
2019-06-27T07:25:42.129Z,15.97
2019-06-27T07:28:30.802Z,15.60
2019-06-27T07:31:20.112Z,27.77
2019-06-27T07:34:09.593Z,15.80
2019-06-27T07:36:59.075Z,15.07
2019-06-27T07:39:48.376Z,18.50
2019-06-27T07:42:37.378Z,20.23
2019-06-27T07:45:26.231Z,16.90
2019-06-27T07:48:15.862Z,17.73
2019-06-27T07:51:05.539Z,19.40
2019-06-27T07:53:54.245Z,20.73
2019-06-27T07:56:46.209Z,23.33
2019-06-27T07:59:33.744Z,18.57
2019-06-27T08:02:22.932Z,16.80
2019-06-27T08:05:12.817Z,15.67
2019-06-27T08:08:01.580Z,15.20
2019-06-27T08:10:50.577Z,16.80
2019-06-27T08:13:39.357Z,16.83
2019-06-27T08:16:28.909Z,12.37
2019-06-27T08:19:18.044Z,15.53
2019-06-27T08:22:07.741Z,15.67
2019-06-27T08:24:57.227Z,12.27
2019-06-27T08:27:46.711Z,15.63
2019-06-27T08:30:36.150Z,19.10
2019-06-27T08:33:25.518Z,11.60
2019-06-27T08:36:17.501Z,13.70
2019-06-27T08:39:08.544Z,10.67
2019-06-27T08:41:58.903Z,12.33
2019-06-27T08:44:48.138Z,17.57
2019-06-27T08:47:37.068Z,16.23
2019-06-27T08:50:26.627Z,15.70
2019-06-27T08:53:16.186Z,15.73
2019-06-27T08:56:05.586Z,12.23
2019-06-27T08:58:55.062Z,14.80
2019-06-27T09:01:45.202Z,13.33
2019-06-27T09:04:34.318Z,16.67
2019-06-27T09:07:24.376Z,12.30
2019-06-27T09:10:14.612Z,14.03
2019-06-27T09:13:03.608Z,16.80
2019-06-27T09:15:52.436Z,10.60
2019-06-27T09:18:41.816Z,15.70
2019-06-27T09:21:33.407Z,15.27
2019-06-27T09:24:22.385Z,14.27
2019-06-27T09:27:11.184Z,19.07
2019-06-27T09:30:00.943Z,13.13
2019-06-27T09:32:50.308Z,19.93
2019-06-27T09:35:39.321Z,12.83
2019-06-27T09:38:28.523Z,13.83
2019-06-27T09:41:18.053Z,18.40
2019-06-27T09:44:07.098Z,17.20
2019-06-27T09:46:56.557Z,17.90
2019-06-27T09:49:45.263Z,12.33
2019-06-27T09:52:35.348Z,11.47
2019-06-27T09:55:23.969Z,12.97
2019-06-27T09:58:13.679Z,13.63
2019-06-27T10:01:05.843Z,12.53
2019-06-27T10:03:53.403Z,15.97
2019-06-27T10:06:42.786Z,21.33
2019-06-27T10:09:31.994Z,12.93
2019-06-27T10:12:21.270Z,14.57
2019-06-27T10:15:09.933Z,11.97
2019-06-27T10:17:59.824Z,15.37
2019-06-27T10:20:50.198Z,10.40
2019-06-27T10:23:39.262Z,12.57
2019-06-27T10:26:28.329Z,12.43
2019-06-27T10:29:17.638Z,15.53
2019-06-27T10:32:06.542Z,13.43
2019-06-27T10:34:56.008Z,11.03
2019-06-27T10:37:44.974Z,13.60
2019-06-27T10:40:34.283Z,12.50
2019-06-27T10:43:23.749Z,12.53
2019-06-27T10:46:12.839Z,12.53
2019-06-27T10:49:01.810Z,15.93
2019-06-27T10:51:51.145Z,9.20
2019-06-27T10:54:39.942Z,12.13
2019-06-27T10:57:29.456Z,12.00
2019-06-27T11:00:18.561Z,10.33
2019-06-27T11:03:15.591Z,15.10
2019-06-27T11:05:58.494Z,10.40
2019-06-27T11:08:47.466Z,10.30
2019-06-27T11:11:37.100Z,9.67
2019-06-27T11:14:25.814Z,13.07
2019-06-27T11:17:15.179Z,10.23
2019-06-27T11:20:04.588Z,12.10
2019-06-27T11:22:54.096Z,7.87
2019-06-27T11:25:42.881Z,10.10
2019-06-27T11:28:32.107Z,17.00
2019-06-27T11:31:21.127Z,14.20
2019-06-27T11:34:10.399Z,12.97
2019-06-27T11:36:59.707Z,9.63
2019-06-27T11:39:49.100Z,12.17
2019-06-27T11:42:38.058Z,6.90
2019-06-27T11:45:27.312Z,11.40
2019-06-27T11:48:16.371Z,16.10
2019-06-27T11:51:06.003Z,11.60
2019-06-27T11:53:55.567Z,17.33
2019-06-27T11:56:44.829Z,9.00
2019-06-27T11:59:34.422Z,6.73
2019-06-27T12:02:25.292Z,9.17
2019-06-27T12:05:14.862Z,8.37
2019-06-27T12:08:04.478Z,8.00
2019-06-27T12:10:54.044Z,10.03
2019-06-27T12:13:43.851Z,7.17
2019-06-27T12:16:33.277Z,10.23
2019-06-27T12:19:23.807Z,10.60
2019-06-27T12:22:13.342Z,11.10
2019-06-27T12:25:03.016Z,9.10
2019-06-27T12:27:52.096Z,10.43
2019-06-27T12:30:41.442Z,5.83
2019-06-27T12:33:30.907Z,8.77
2019-06-27T12:36:20.386Z,10.30
2019-06-27T12:39:09.870Z,14.40
2019-06-27T12:42:00.180Z,13.77
2019-06-27T12:44:49.670Z,8.43
2019-06-27T12:47:39.054Z,11.43
2019-06-27T12:50:28.074Z,10.63
2019-06-27T12:53:17.053Z,6.10
2019-06-27T12:56:06.391Z,7.57
2019-06-27T12:58:55.991Z,11.63
2019-06-27T13:01:45.083Z,9.20
2019-06-27T13:04:33.919Z,5.90
2019-06-27T13:07:23.297Z,14.63
2019-06-27T13:10:13.008Z,13.90
2019-06-27T13:13:02.036Z,7.90
2019-06-27T13:15:52.087Z,24.13
2019-06-27T13:18:41.248Z,9.13
2019-06-27T13:21:11.536Z,8.33
2019-06-27T13:23:41.850Z,12.93
2019-06-27T13:26:12.411Z,12.40
2019-06-27T13:28:43.058Z,10.43
2019-06-27T13:31:13.379Z,8.00
2019-06-27T13:33:43.755Z,11.33
2019-06-27T13:36:14.453Z,8.47
2019-06-27T13:38:44.963Z,4.30
2019-06-27T13:41:15.086Z,7.73
2019-06-27T13:43:49.008Z,8.37
2019-06-27T13:46:19.123Z,5.93
2019-06-27T13:48:49.227Z,9.30
2019-06-27T13:51:19.201Z,7.10
2019-06-27T13:53:49.375Z,9.70
2019-06-27T13:56:19.437Z,7.03
2019-06-27T13:59:08.502Z,7.73
2019-06-27T14:01:57.496Z,3.90
2019-06-27T14:04:56.535Z,16.73
2019-06-27T14:07:37.291Z,5.90
2019-06-27T14:10:26.261Z,6.93
2019-06-27T14:13:15.826Z,6.13
2019-06-27T14:16:05.939Z,4.43
2019-06-27T14:18:55.791Z,4.33
2019-06-27T14:21:45.367Z,7.13
2019-06-27T14:24:34.805Z,6.25
2019-06-27T14:27:23.738Z,6.93
2019-06-27T14:30:10.292Z,7.63
2019-06-27T14:32:40.447Z,11.30
2019-06-27T14:35:15.906Z,5.47
2019-06-27T14:37:42.612Z,7.00
2019-06-27T14:40:13.508Z,7.27
2019-06-27T14:42:43.638Z,10.10
2019-06-27T14:45:14.145Z,6.13
2019-06-27T14:47:44.813Z,5.20
2019-06-27T14:50:15.042Z,6.83
2019-06-27T14:52:45.694Z,6.47
2019-06-27T14:55:17.226Z,5.07
2019-06-27T14:57:47.555Z,5.67
2019-06-27T15:00:18.025Z,4.77
2019-06-27T15:02:48.159Z,6.57
2019-06-27T15:05:31.970Z,6.47
2019-06-27T15:07:50.511Z,5.20
2019-06-27T15:10:21.374Z,6.63
2019-06-27T15:12:57.061Z,6.97
2019-06-27T15:15:23.419Z,9.43
2019-06-27T15:17:53.814Z,5.33
2019-06-27T15:20:24.389Z,7.03
2019-06-27T15:22:55.057Z,6.40
2019-06-27T15:25:28.261Z,9.23
2019-06-27T15:27:57.555Z,7.40
2019-06-27T15:30:28.097Z,8.90
2019-06-27T15:32:58.641Z,4.70
2019-06-27T15:35:33.447Z,6.73
2019-06-27T15:38:01.544Z,4.17
2019-06-27T15:40:32.035Z,5.43
2019-06-27T15:43:03.330Z,7.73
2019-06-27T15:45:33.553Z,7.07
2019-06-27T15:48:04.115Z,12.83
2019-06-27T15:50:34.532Z,9.17
2019-06-27T15:53:05.182Z,6.67
2019-06-27T15:55:35.376Z,4.83
2019-06-27T15:58:05.720Z,7.60
2019-06-27T16:00:39.172Z,8.23
2019-06-27T16:03:07.945Z,10.33
2019-06-27T16:05:38.084Z,8.90
2019-06-27T16:08:08.724Z,3.63
2019-06-27T16:10:39.009Z,5.47
2019-06-27T16:13:09.311Z,5.10
2019-06-27T16:15:39.443Z,7.27
2019-06-27T16:18:10.272Z,6.40
2019-06-27T16:20:40.511Z,5.37
2019-06-27T16:23:11.295Z,7.30
2019-06-27T16:25:41.927Z,5.90
2019-06-27T16:28:12.533Z,6.30
2019-06-27T16:30:42.712Z,4.70
2019-06-27T16:33:13.303Z,3.63
2019-06-27T16:35:43.325Z,7.97
2019-06-27T16:38:13.960Z,8.20
2019-06-27T16:40:44.306Z,5.30
2019-06-27T16:43:14.714Z,10.23
2019-06-27T16:45:44.967Z,5.67
2019-06-27T16:48:15.803Z,7.23
2019-06-27T16:50:46.148Z,12.83
2019-06-27T16:53:16.464Z,8.77
2019-06-27T16:55:46.765Z,6.37
2019-06-27T16:58:17.194Z,10.20
2019-06-27T17:00:47.504Z,6.57
2019-06-27T17:03:21.062Z,7.27
2019-06-27T17:05:51.474Z,11.43
2019-06-27T17:08:21.787Z,6.23
2019-06-27T17:10:52.095Z,4.73
2019-06-27T17:13:22.922Z,4.03
2019-06-27T17:15:53.043Z,5.20
2019-06-27T17:18:23.299Z,10.50
2019-06-27T17:20:53.423Z,7.07
2019-06-27T17:23:23.886Z,13.97
2019-06-27T17:25:54.252Z,4.57
2019-06-27T17:28:25.002Z,11.63
2019-06-27T17:30:55.890Z,7.33
2019-06-27T17:33:26.236Z,11.37
2019-06-27T17:35:56.757Z,5.90
2019-06-27T17:38:27.334Z,5.70
2019-06-27T17:40:57.435Z,7.97
2019-06-27T17:43:27.877Z,4.73
2019-06-27T17:45:58.359Z,4.70
2019-06-27T17:48:28.839Z,17.03
2019-06-27T17:51:00.037Z,7.47
2019-06-27T17:53:30.411Z,5.90
2019-06-27T17:56:01.227Z,15.20
2019-06-27T17:58:31.596Z,6.00
2019-06-27T18:01:01.941Z,5.97
2019-06-27T18:03:32.413Z,10.13
2019-06-27T18:06:02.811Z,10.00
2019-06-27T18:08:51.494Z,7.43
2019-06-27T18:11:40.711Z,10.67
2019-06-27T18:14:30.222Z,7.50
2019-06-27T18:17:32.548Z,4.87
2019-06-27T18:20:11.006Z,7.23
2019-06-27T18:23:00.561Z,13.23
2019-06-27T18:25:49.605Z,8.97
2019-06-27T18:28:38.862Z,6.67
2019-06-27T18:31:29.021Z,5.57
2019-06-27T18:34:17.881Z,8.83
2019-06-27T18:37:06.661Z,10.27
2019-06-27T18:39:55.766Z,7.80
2019-06-27T18:42:44.859Z,8.23
2019-06-27T18:45:33.722Z,8.87
2019-06-27T18:48:23.163Z,10.13
2019-06-27T18:51:12.598Z,6.57
2019-06-27T18:54:01.359Z,7.10
2019-06-27T18:56:50.359Z,5.00
2019-06-27T18:59:39.195Z,5.60
2019-06-27T19:02:28.336Z,7.60
2019-06-27T19:05:17.198Z,5.87
2019-06-27T19:08:06.511Z,10.70
2019-06-27T19:10:55.231Z,6.10
2019-06-27T19:13:44.773Z,8.43
2019-06-27T19:16:33.750Z,6.67
2019-06-27T19:19:25.962Z,4.53
2019-06-27T19:22:23.623Z,7.70
2019-06-27T19:25:21.767Z,7.40
2019-06-27T19:28:11.414Z,6.40
2019-06-27T19:31:00.203Z,5.43
2019-06-27T19:33:49.799Z,4.80
2019-06-27T19:36:38.926Z,4.03
2019-06-27T19:39:27.955Z,11.30
2019-06-27T19:42:17.553Z,11.00
2019-06-27T19:45:07.356Z,6.40
2019-06-27T19:47:56.514Z,6.97
2019-06-27T19:50:45.493Z,7.17
2019-06-27T19:53:35.090Z,4.80
2019-06-27T19:56:24.541Z,4.97
2019-06-27T19:59:13.375Z,7.03
2019-06-27T20:02:02.737Z,8.07
2019-06-27T20:04:51.847Z,12.53
2019-06-27T20:07:43.392Z,6.80
2019-06-27T20:10:32.250Z,6.73
2019-06-27T20:13:21.371Z,7.93
2019-06-27T20:16:10.532Z,5.90
2019-06-27T20:19:00.053Z,8.83
2019-06-27T20:21:49.477Z,8.97
2019-06-27T20:24:38.954Z,5.23
2019-06-27T20:27:28.401Z,6.47
2019-06-27T20:30:18.262Z,8.60
2019-06-27T20:33:07.139Z,6.93
2019-06-27T20:35:56.613Z,5.63
2019-06-27T20:38:45.976Z,5.60
2019-06-27T20:41:35.184Z,6.77
2019-06-27T20:44:28.339Z,5.37
2019-06-27T20:47:17.475Z,10.63
2019-06-27T20:50:06.738Z,6.03
2019-06-27T20:52:55.972Z,4.90
2019-06-27T20:55:44.891Z,4.90
2019-06-27T20:58:34.099Z,5.37
2019-06-27T21:01:24.572Z,3.97
2019-06-27T21:04:13.577Z,7.40
2019-06-27T21:07:02.756Z,4.17
2019-06-27T21:09:52.131Z,6.13
2019-06-27T21:12:41.336Z,5.50
2019-06-27T21:15:30.913Z,4.53
2019-06-27T21:18:19.665Z,5.30
2019-06-27T21:21:09.065Z,6.77
2019-06-27T21:23:58.743Z,5.40
2019-06-27T21:26:47.804Z,7.90
2019-06-27T21:29:37.113Z,5.50
2019-06-27T21:32:31.414Z,7.00
2019-06-27T21:35:17.635Z,5.37
2019-06-27T21:38:06.421Z,7.77
2019-06-27T21:40:55.353Z,5.50
2019-06-27T21:43:44.368Z,4.30
2019-06-27T21:46:33.596Z,5.33
2019-06-27T21:49:24.083Z,6.53
2019-06-27T21:52:13.518Z,9.80
2019-06-27T21:55:03.219Z,4.40
2019-06-27T21:57:52.828Z,5.13
2019-06-27T22:00:42.029Z,10.17
2019-06-27T22:03:31.053Z,7.60
2019-06-27T22:06:19.955Z,5.77
2019-06-27T22:09:23.483Z,6.67
2019-06-27T22:11:59.513Z,10.10
2019-06-27T22:14:48.560Z,8.83
2019-06-27T22:17:37.568Z,6.13
2019-06-27T22:20:26.925Z,6.70
2019-06-27T22:23:15.797Z,7.87
2019-06-27T22:26:05.132Z,9.03
2019-06-27T22:28:54.238Z,11.03
2019-06-27T22:31:43.198Z,13.67
2019-06-27T22:34:32.759Z,8.37
2019-06-27T22:37:24.051Z,8.33
2019-06-27T22:40:31.497Z,9.13
2019-06-27T22:43:38.310Z,11.63
2019-06-27T22:46:45.799Z,8.67
2019-06-27T22:49:33.935Z,10.27
2019-06-27T22:52:44.988Z,8.20
2019-06-27T22:55:34.090Z,10.77
2019-06-27T22:58:23.111Z,14.40
2019-06-27T23:01:11.922Z,9.57
2019-06-27T23:04:01.017Z,9.80
2019-06-27T23:06:50.438Z,9.00
2019-06-27T23:09:39.237Z,10.10
2019-06-27T23:12:28.411Z,9.43
2019-06-27T23:15:17.788Z,7.67
2019-06-27T23:18:06.318Z,12.67
2019-06-27T23:20:55.039Z,6.97
2019-06-27T23:23:44.654Z,11.03
2019-06-27T23:26:34.126Z,12.57
2019-06-27T23:29:22.765Z,8.40
2019-06-27T23:32:11.810Z,13.67
2019-06-27T23:35:01.039Z,8.37
2019-06-27T23:37:49.889Z,16.33
2019-06-27T23:40:38.657Z,14.03
2019-06-27T23:43:27.871Z,8.50
2019-06-27T23:46:34.657Z,17.70
2019-06-27T23:49:23.767Z,10.20
2019-06-27T23:52:12.689Z,12.07
2019-06-27T23:55:01.556Z,13.03
2019-06-27T23:57:50.917Z,10.10
